x

Mt Desert Rock, Me (mdrm1) Weather Station

12:00am - Mon 8th Feb 2016 All times are EST. -5 hours from GMT.

  • Wind
    36mph, 40mph gusts
  • 空気 Temp 28°f
  • Sea Pressure 1020.6mb
  • Mt Desert Rock, Me
  • Mt Desert Rock, Me

More Historic Weather Station data

Upgrade to MSW Pro to gain access to the past 30 days of data for over 8000 Wavebouys and Weather Stations around the globe.

Join Pro

Comparision Forecast

View Surf forecast
   
Mon 02/08 12:00am 36 40 mph 1020.6mb 28f
Sun 02/07 11:00pm 36 39 mph 1021.6mb 29f
10:00pm 31 33 mph 1022.7mb 32f
9:00pm 28 30 mph 1023.1mb 32f
8:00pm 25 26 mph 1022.8mb 34f
7:00pm 18 21 mph 1022.3mb 37f
6:00pm 17 18 mph 1022mb 37f
5:00pm 17 20 mph 1021.1mb 37f
4:00pm 14 15 mph 1021.5mb 37f
3:00pm 11 14 mph 1021.8mb 38f
2:00pm 15 16 mph 1020.9mb 39f
1:00pm 17 21 mph 1020.7mb 39f
12:00pm 17 18 mph 1019.5mb 38f
11:00am 18 20 mph 1020.2mb 38f
10:00am 20 21 mph 1020mb 38f
9:00am 22 24 mph 1019.5mb 38f
8:00am 29 31 mph 1019.4mb 39f
7:00am 29 32 mph 1018.6mb 40f
6:00am 30 33 mph 1018mb 40f
5:00am 29 30 mph 1018.1mb 40f
4:00am 26 31 mph 1018mb 40f
3:00am 28 30 mph 1018.5mb 40f
2:00am 31 33 mph 1019.2mb 40f
1:00am 31 32 mph 1019.8mb 39f
12:00am 29 30 mph 1020.7mb 39f
Sat 02/06 11:00pm 28 31 mph 1021.4mb 38f
10:00pm 31 33 mph 1021.9mb 39f
9:00pm 31 33 mph 1022.2mb 38f
8:00pm 30 33 mph 1022.7mb 38f
7:00pm 31 34 mph 1022.9mb 38f
6:00pm 33 36 mph 1023.1mb 37f
5:00pm 30 32 mph 1023mb 37f
4:00pm 28 30 mph 1023.3mb 37f
3:00pm 25 29 mph 1023.7mb 36f
2:00pm 25 28 mph 1023.9mb 35f
1:00pm 24 26 mph 1024.4mb 34f
12:00pm 16 18 mph 1024.9mb 34f
11:00am 14 16 mph 1025.8mb 31f
10:00am 16 17 mph 1026.5mb 30f
9:00am 10 13 mph 1026.3mb 29f
8:00am 16 20 mph 1025.7mb 28f
7:00am 18 21 mph 1025.2mb 27f
6:00am 23 26 mph 1024.5mb 26f
5:00am 26 29 mph 1023.6mb 26f
4:00am 32 37 mph 1022.6mb 25f
3:00am 31 33 mph 1021.6mb 25f
2:00am 29 31 mph 1021.4mb 25f
1:00am 30 33 mph 1020.3mb 25f
12:00am 33 38 mph 1018.7mb 26f
Fri 02/05 11:00pm 34 39 mph 1017.4mb 27f
10:00pm 39 41 mph 1015.8mb 28f
9:00pm 36 39 mph 1014.9mb 28f
8:00pm 38 44 mph 1013.1mb 29f
7:00pm 38 40 mph 1011.8mb 29f
6:00pm 48 52 mph 1008.4mb 30f
5:00pm 39 45 mph 1009.2mb 31f
4:00pm 39 44 mph 1011mb 31f
3:00pm 37 41 mph 1010mb 32f
2:00pm 38 41 mph 1008.4mb 33f
1:00pm 33 39 mph 1010.7mb 33f
12:00pm 31 36 mph 1012.4mb 32f
11:00am 31 34 mph 1015.5mb 32f
10:00am 31 34 mph 1016.7mb 33f
9:00am 31 33 mph 1015.9mb 33f
8:00am 21 22 mph 1017.5mb 33f
7:00am 23 25 mph 1017.5mb 35f
6:00am 22 23 mph 1017.4mb 35f
5:00am 20 21 mph 1018.2mb 35f
4:00am 20 22 mph 1018.2mb 37f
3:00am 21 22 mph 1017.9mb 38f
2:00am 14 15 mph 1018.7mb 42f
1:00am 18 20 mph 1017.3mb 42f
12:00am 16 17 mph 1017.2mb 43f
Thu 02/04 11:00pm 18 20 mph 1017.2mb 43f
10:00pm 18 21 mph 1017.7mb 44f
9:00pm 14 15 mph 1018.3mb 44f
8:00pm 7 8 mph 1017.1mb 45f
7:00pm 7
mph
1016.5mb 45f
6:00pm 10
mph
1016.3mb 46f
5:00pm 8
mph
1014.8mb 45f
4:00pm 7
mph
1014.1mb 47f
3:00pm 3
mph
1012.9mb 46f
2:00pm 3
mph
1012.2mb 47f
1:00pm 5 6 mph 1012.4mb 46f
12:00pm 10 13 mph 1012.2mb 46f
11:00am 14 15 mph 1012.8mb 45f
10:00am 22 24 mph 1012mb 46f
9:00am 22 24 mph 1011.8mb 46f
8:00am 22 24 mph 1011.7mb 46f
7:00am 25 26 mph 1011.5mb 47f